sensor_id;sensor_type;location;lat;lon;timestamp;pressure;altitude;pressure_sealevel;temperature;humidity
77281;BME280;66339;47.262;17.144;2023-11-19T00:01:21;100859.12;;;20.43;48.66
77281;BME280;66339;47.262;17.144;2023-11-19T00:03:48;100870.94;;;20.42;48.69
77281;BME280;66339;47.262;17.144;2023-11-19T00:06:17;100865.56;;;20.42;48.69
77281;BME280;66339;47.262;17.144;2023-11-19T00:08:44;100856.72;;;20.42;48.64
77281;BME280;66339;47.262;17.144;2023-11-19T00:11:11;100846.25;;;20.40;48.67
77281;BME280;66339;47.262;17.144;2023-11-19T00:13:39;100843.56;;;20.40;48.69
77281;BME280;66339;47.262;17.144;2023-11-19T00:16:07;100846.25;;;20.40;48.70
77281;BME280;66339;47.262;17.144;2023-11-19T00:18:36;100855.34;;;20.39;48.68
77281;BME280;66339;47.262;17.144;2023-11-19T00:21:05;100844.59;;;20.39;48.64
77281;BME280;66339;47.262;17.144;2023-11-19T00:23:33;100848.38;;;20.38;48.61
77281;BME280;66339;47.262;17.144;2023-11-19T00:26:04;100853.75;;;20.38;48.62
77281;BME280;66339;47.262;17.144;2023-11-19T00:28:32;100842.47;;;20.36;48.63
77281;BME280;66339;47.262;17.144;2023-11-19T00:31:00;100844.09;;;20.37;48.65
77281;BME280;66339;47.262;17.144;2023-11-19T00:33:28;100840.84;;;20.35;48.68
77281;BME280;66339;47.262;17.144;2023-11-19T00:35:55;100832.78;;;20.35;48.71
77281;BME280;66339;47.262;17.144;2023-11-19T00:38:25;100832.78;;;20.35;48.75
77281;BME280;66339;47.262;17.144;2023-11-19T00:40:58;100821.75;;;20.31;48.99
77281;BME280;66339;47.262;17.144;2023-11-19T00:43:29;100822.84;;;20.30;49.16
77281;BME280;66339;47.262;17.144;2023-11-19T00:46:03;100843.53;;;20.35;49.10
77281;BME280;66339;47.262;17.144;2023-11-19T00:48:30;100837.09;;;20.36;49.05
77281;BME280;66339;47.262;17.144;2023-11-19T00:51:01;100824.47;;;20.37;49.02
77281;BME280;66339;47.262;17.144;2023-11-19T00:53:29;100822.84;;;20.35;48.99
77281;BME280;66339;47.262;17.144;2023-11-19T00:55:59;100818.28;;;20.36;48.97
77281;BME280;66339;47.262;17.144;2023-11-19T00:58:32;100807.56;;;20.36;48.94
77281;BME280;66339;47.262;17.144;2023-11-19T01:01:01;100810.25;;;20.36;48.95
77281;BME280;66339;47.262;17.144;2023-11-19T01:03:29;100812.94;;;20.36;48.94
77281;BME280;66339;47.262;17.144;2023-11-19T01:05:56;100811.28;;;20.35;48.88
77281;BME280;66339;47.262;17.144;2023-11-19T01:08:24;100823.66;;;20.36;48.89
77281;BME280;66339;47.262;17.144;2023-11-19T01:10:51;100829.03;;;20.36;48.88
77281;BME280;66339;47.262;17.144;2023-11-19T01:13:21;100826.59;;;20.34;48.89
77281;BME280;66339;47.262;17.144;2023-11-19T01:18:28;100816.66;;;20.35;48.88
77281;BME280;66339;47.262;17.144;2023-11-19T01:20:56;100811.56;;;20.33;48.90
77281;BME280;66339;47.262;17.144;2023-11-19T01:23:25;100809.16;;;20.32;48.96
77281;BME280;66339;47.262;17.144;2023-11-19T01:25:53;100806.47;;;20.32;48.97
77281;BME280;66339;47.262;17.144;2023-11-19T01:28:21;100799.47;;;20.31;48.94
77281;BME280;66339;47.262;17.144;2023-11-19T01:30:54;100792.50;;;20.30;49.01
77281;BME280;66339;47.262;17.144;2023-11-19T01:33:24;100786.31;;;20.29;49.02
77281;BME280;66339;47.262;17.144;2023-11-19T01:35:53;100779.34;;;20.28;48.98
77281;BME280;66339;47.262;17.144;2023-11-19T01:38:22;100773.16;;;20.28;49.00
77281;BME280;66339;47.262;17.144;2023-11-19T01:40:50;100770.75;;;20.26;49.02
77281;BME280;66339;47.262;17.144;2023-11-19T01:43:36;100780.69;;;20.26;49.00
77281;BME280;66339;47.262;17.144;2023-11-19T01:46:18;100796.00;;;20.25;48.98
77281;BME280;66339;47.262;17.144;2023-11-19T01:48:47;100803.50;;;20.23;49.01
77281;BME280;66339;47.262;17.144;2023-11-19T01:51:17;100784.97;;;20.22;48.99
77281;BME280;66339;47.262;17.144;2023-11-19T01:53:45;100773.69;;;20.20;49.03
77281;BME280;66339;47.262;17.144;2023-11-19T01:56:15;100758.66;;;20.19;49.03
77281;BME280;66339;47.262;17.144;2023-11-19T01:58:44;100755.44;;;20.17;49.09
77281;BME280;66339;47.262;17.144;2023-11-19T02:01:13;100743.91;;;20.16;49.18
77281;BME280;66339;47.262;17.144;2023-11-19T02:03:45;100746.03;;;20.14;49.19
77281;BME280;66339;47.262;17.144;2023-11-19T02:17:05;100718.91;;;20.10;49.30
77281;BME280;66339;47.262;17.144;2023-11-19T02:46:37;100718.37;;;20.03;49.37
77281;BME280;66339;47.262;17.144;2023-11-19T02:59:59;100687.53;;;20.01;49.42
77281;BME280;66339;47.262;17.144;2023-11-19T03:02:32;100692.09;;;20.00;49.47
77281;BME280;66339;47.262;17.144;2023-11-19T03:07:41;100675.44;;;19.98;49.52
77281;BME280;66339;47.262;17.144;2023-11-19T03:10:11;100688.06;;;19.98;49.59
77281;BME280;66339;47.262;17.144;2023-11-19T03:12:42;100687.25;;;19.97;49.60
77281;BME280;66339;47.262;17.144;2023-11-19T03:17:45;100680.25;;;19.96;49.54
77281;BME280;66339;47.262;17.144;2023-11-19T03:20:20;100673.28;;;19.95;49.54
77281;BME280;66339;47.262;17.144;2023-11-19T03:22:51;100666.03;;;19.96;49.58
77281;BME280;66339;47.262;17.144;2023-11-19T03:28:01;100651.00;;;19.95;49.56
77281;BME280;66339;47.262;17.144;2023-11-19T03:30:48;100652.88;;;19.94;49.59
77281;BME280;66339;47.262;17.144;2023-11-19T03:33:19;100649.66;;;19.92;49.61
77281;BME280;66339;47.262;17.144;2023-11-19T03:35:47;100648.59;;;19.93;49.54
77281;BME280;66339;47.262;17.144;2023-11-19T03:38:15;100645.91;;;19.93;49.53
77281;BME280;66339;47.262;17.144;2023-11-19T03:40:42;100646.97;;;19.92;49.54
77281;BME280;66339;47.262;17.144;2023-11-19T03:43:10;100648.84;;;19.92;49.58
77281;BME280;66339;47.262;17.144;2023-11-19T03:45:38;100653.41;;;19.91;49.56
77281;BME280;66339;47.262;17.144;2023-11-19T03:48:09;100646.16;;;19.92;49.55
77281;BME280;66339;47.262;17.144;2023-11-19T03:55:42;100616.37;;;19.88;49.53
77281;BME280;66339;47.262;17.144;2023-11-19T04:03:30;100581.75;;;19.86;49.60
77281;BME280;66339;47.262;17.144;2023-11-19T04:06:01;100582.56;;;19.87;49.68
77281;BME280;66339;47.262;17.144;2023-11-19T04:08:28;100589.00;;;19.86;49.78
77281;BME280;66339;47.262;17.144;2023-11-19T04:10:55;100590.59;;;19.87;49.85
77281;BME280;66339;47.262;17.144;2023-11-19T04:13:22;100596.78;;;19.87;49.92
77281;BME280;66339;47.262;17.144;2023-11-19T04:15:50;100591.16;;;19.89;49.95
77281;BME280;66339;47.262;17.144;2023-11-19T04:18:17;100576.37;;;19.92;49.98
77281;BME280;66339;47.262;17.144;2023-11-19T04:20:44;100569.66;;;19.94;49.99
77281;BME280;66339;47.262;17.144;2023-11-19T04:23:11;100569.13;;;19.97;50.01
77281;BME280;66339;47.262;17.144;2023-11-19T04:25:38;100545.47;;;19.99;49.99
77281;BME280;66339;47.262;17.144;2023-11-19T04:28:08;100546.53;;;20.03;49.93
77281;BME280;66339;47.262;17.144;2023-11-19T04:30:35;100544.38;;;20.05;49.92
77281;BME280;66339;47.262;17.144;2023-11-19T04:33:02;100550.03;;;20.09;49.93
77281;BME280;66339;47.262;17.144;2023-11-19T04:35:29;100539.78;;;20.11;49.94
77281;BME280;66339;47.262;17.144;2023-11-19T04:40:38;100540.06;;;20.15;49.73
77281;BME280;66339;47.262;17.144;2023-11-19T04:43:10;100538.72;;;20.17;49.61
77281;BME280;66339;47.262;17.144;2023-11-19T04:45:43;100548.38;;;20.18;49.54
77281;BME280;66339;47.262;17.144;2023-11-19T04:48:18;100547.56;;;20.18;49.52
77281;BME280;66339;47.262;17.144;2023-11-19T05:01:47;100545.97;;;20.17;49.34
77281;BME280;66339;47.262;17.144;2023-11-19T05:04:21;100550.78;;;20.15;49.36
77281;BME280;66339;47.262;17.144;2023-11-19T05:06:49;100561.03;;;20.13;49.40
77281;BME280;66339;47.262;17.144;2023-11-19T05:09:16;100559.94;;;20.14;49.42
77281;BME280;66339;47.262;17.144;2023-11-19T05:11:43;100557.25;;;20.14;49.43
77281;BME280;66339;47.262;17.144;2023-11-19T05:14:13;100552.69;;;20.14;49.46
77281;BME280;66339;47.262;17.144;2023-11-19T05:16:43;100545.41;;;20.15;49.47
77281;BME280;66339;47.262;17.144;2023-11-19T05:19:10;100539.78;;;20.16;49.41
77281;BME280;66339;47.262;17.144;2023-11-19T05:21:37;100536.81;;;20.18;49.39
77281;BME280;66339;47.262;17.144;2023-11-19T05:24:08;100536.81;;;20.18;49.36
77281;BME280;66339;47.262;17.144;2023-11-19T05:26:35;100526.88;;;20.18;49.30
77281;BME280;66339;47.262;17.144;2023-11-19T05:29:02;100509.97;;;20.18;49.25
77281;BME280;66339;47.262;17.144;2023-11-19T05:31:33;100505.09;;;20.20;49.17
77281;BME280;66339;47.262;17.144;2023-11-19T05:34:03;100489.28;;;20.18;49.16
77281;BME280;66339;47.262;17.144;2023-11-19T05:36:31;100487.41;;;20.19;49.14
77281;BME280;66339;47.262;17.144;2023-11-19T05:38:58;100479.34;;;20.19;49.13
77281;BME280;66339;47.262;17.144;2023-11-19T05:41:26;100476.12;;;20.17;49.13
77281;BME280;66339;47.262;17.144;2023-11-19T05:49:16;100481.50;;;20.11;49.31
77281;BME280;66339;47.262;17.144;2023-11-19T05:51:44;100476.94;;;20.12;49.43
77281;BME280;66339;47.262;17.144;2023-11-19T05:54:11;100477.22;;;20.10;49.65
77281;BME280;66339;47.262;17.144;2023-11-19T05:56:38;100476.72;;;20.08;49.93
77281;BME280;66339;47.262;17.144;2023-11-19T05:59:05;100474.03;;;20.08;50.34
77281;BME280;66339;47.262;17.144;2023-11-19T06:01:35;100474.25;;;20.12;50.24
77281;BME280;66339;47.262;17.144;2023-11-19T06:04:05;100472.91;;;20.15;50.13
77281;BME280;66339;47.262;17.144;2023-11-19T06:09:08;100457.84;;;20.19;49.94
77281;BME280;66339;47.262;17.144;2023-11-19T06:14:16;100454.34;;;20.23;49.75
77281;BME280;66339;47.262;17.144;2023-11-19T06:16:45;100442.78;;;20.23;49.84
77281;BME280;66339;47.262;17.144;2023-11-19T06:19:14;100440.66;;;20.25;49.79
77281;BME280;66339;47.262;17.144;2023-11-19T06:21:42;100437.72;;;20.21;50.03
77281;BME280;66339;47.262;17.144;2023-11-19T06:24:09;100429.38;;;20.23;49.86
77281;BME280;66339;47.262;17.144;2023-11-19T06:26:36;100432.84;;;20.23;49.78
77281;BME280;66339;47.262;17.144;2023-11-19T06:29:03;100430.44;;;20.22;49.77
77281;BME280;66339;47.262;17.144;2023-11-19T06:31:30;100441.19;;;20.22;49.69
77281;BME280;66339;47.262;17.144;2023-11-19T06:33:57;100430.44;;;20.22;49.74
77281;BME280;66339;47.262;17.144;2023-11-19T06:36:23;100426.16;;;20.21;49.98
77281;BME280;66339;47.262;17.144;2023-11-19T06:38:50;100425.59;;;20.24;49.85
77281;BME280;66339;47.262;17.144;2023-11-19T06:41:17;100428.00;;;20.25;49.86
77281;BME280;66339;47.262;17.144;2023-11-19T06:43:44;100430.69;;;20.25;50.08
77281;BME280;66339;47.262;17.144;2023-11-19T06:46:17;100440.91;;;20.28;49.96
77281;BME280;66339;47.262;17.144;2023-11-19T06:48:45;100431.75;;;20.29;49.94
77281;BME280;66339;47.262;17.144;2023-11-19T06:51:12;100428.78;;;20.31;50.08
77281;BME280;66339;47.262;17.144;2023-11-19T06:53:39;100426.09;;;20.31;49.97
77281;BME280;66339;47.262;17.144;2023-11-19T06:56:26;100419.66;;;20.32;49.79
77281;BME280;66339;47.262;17.144;2023-11-19T06:58:54;100424.44;;;20.35;49.80
77281;BME280;66339;47.262;17.144;2023-11-19T07:01:21;100419.63;;;20.37;49.84
77281;BME280;66339;47.262;17.144;2023-11-19T07:03:51;100419.06;;;20.40;49.83
77281;BME280;66339;47.262;17.144;2023-11-19T07:06:18;100426.53;;;20.43;49.77
77281;BME280;66339;47.262;17.144;2023-11-19T07:08:45;100428.97;;;20.45;49.66
77281;BME280;66339;47.262;17.144;2023-11-19T07:11:13;100435.12;;;20.45;49.66
77281;BME280;66339;47.262;17.144;2023-11-19T07:13:40;100429.22;;;20.43;49.75
77281;BME280;66339;47.262;17.144;2023-11-19T07:16:07;100412.03;;;20.44;49.86
77281;BME280;66339;47.262;17.144;2023-11-19T07:18:34;100412.56;;;20.46;49.77
77281;BME280;66339;47.262;17.144;2023-11-19T07:21:01;100417.41;;;20.49;49.54
77281;BME280;66339;47.262;17.144;2023-11-19T07:23:31;100414.44;;;20.46;49.35
77281;BME280;66339;47.262;17.144;2023-11-19T07:25:58;100413.09;;;20.43;49.08
77281;BME280;66339;47.262;17.144;2023-11-19T07:28:25;100409.91;;;20.41;49.44
77281;BME280;66339;47.262;17.144;2023-11-19T07:30:52;100414.75;;;20.39;49.42
77281;BME280;66339;47.262;17.144;2023-11-19T07:33:19;100412.34;;;20.38;49.47
77281;BME280;66339;47.262;17.144;2023-11-19T07:35:46;100397.59;;;20.35;49.59
77281;BME280;66339;47.262;17.144;2023-11-19T07:38:13;100387.41;;;20.32;50.13
77281;BME280;66339;47.262;17.144;2023-11-19T07:40:39;100382.84;;;20.32;50.31
77281;BME280;66339;47.262;17.144;2023-11-19T07:43:06;100376.69;;;20.32;50.36
77281;BME280;66339;47.262;17.144;2023-11-19T07:45:33;100394.94;;;20.30;50.35
77281;BME280;66339;47.262;17.144;2023-11-19T07:48:00;100393.59;;;20.27;50.83
77281;BME280;66339;47.262;17.144;2023-11-19T07:50:27;100386.37;;;20.28;50.84
77281;BME280;66339;47.262;17.144;2023-11-19T07:52:54;100376.69;;;20.27;50.96
77281;BME280;66339;47.262;17.144;2023-11-19T07:55:21;100361.66;;;20.26;51.38
77281;BME280;66339;47.262;17.144;2023-11-19T07:57:51;100348.25;;;20.26;51.27
77281;BME280;66339;47.262;17.144;2023-11-19T08:00:21;100350.91;;;20.26;51.32
77281;BME280;66339;47.262;17.144;2023-11-19T08:02:48;100345.56;;;20.26;51.23
77281;BME280;66339;47.262;17.144;2023-11-19T08:05:16;100343.66;;;20.26;51.09
77281;BME280;66339;47.262;17.144;2023-11-19T08:07:44;100357.38;;;20.25;51.24
77281;BME280;66339;47.262;17.144;2023-11-19T08:10:11;100349.31;;;20.25;50.33
77281;BME280;66339;47.262;17.144;2023-11-19T08:12:40;100348.00;;;20.22;50.58
77281;BME280;66339;47.262;17.144;2023-11-19T08:15:07;100335.91;;;20.20;50.75
77281;BME280;66339;47.262;17.144;2023-11-19T08:17:34;100323.56;;;20.19;50.70
77281;BME280;66339;47.262;17.144;2023-11-19T08:20:01;100320.38;;;20.17;50.73
77281;BME280;66339;47.262;17.144;2023-11-19T08:22:28;100302.66;;;20.16;50.78
77281;BME280;66339;47.262;17.144;2023-11-19T08:24:55;100315.56;;;20.14;50.81
77281;BME280;66339;47.262;17.144;2023-11-19T08:27:22;100322.03;;;20.13;50.79
77281;BME280;66339;47.262;17.144;2023-11-19T08:29:49;100309.66;;;20.11;50.79
77281;BME280;66339;47.262;17.144;2023-11-19T08:32:18;100303.78;;;20.09;50.78
77281;BME280;66339;47.262;17.144;2023-11-19T08:34:45;100313.44;;;20.10;50.68
77281;BME280;66339;47.262;17.144;2023-11-19T08:37:12;100329.03;;;20.08;50.63
77281;BME280;66339;47.262;17.144;2023-11-19T08:39:39;100343.53;;;20.07;50.52
77281;BME280;66339;47.262;17.144;2023-11-19T08:42:12;100347.28;;;20.06;50.50
77281;BME280;66339;47.262;17.144;2023-11-19T08:44:39;100334.97;;;20.05;50.45
77281;BME280;66339;47.262;17.144;2023-11-19T08:47:06;100318.84;;;20.05;50.45
77281;BME280;66339;47.262;17.144;2023-11-19T08:49:33;100312.94;;;20.03;50.43
77281;BME280;66339;47.262;17.144;2023-11-19T08:52:00;100319.41;;;20.02;50.37
77281;BME280;66339;47.262;17.144;2023-11-19T08:54:27;100317.00;;;20.01;50.37
77281;BME280;66339;47.262;17.144;2023-11-19T08:56:54;100326.94;;;20.00;50.46
77281;BME280;66339;47.262;17.144;2023-11-19T08:59:21;100322.63;;;19.99;50.37
77281;BME280;66339;47.262;17.144;2023-11-19T09:01:48;100321.03;;;19.98;50.40
77281;BME280;66339;47.262;17.144;2023-11-19T09:04:18;100329.09;;;19.98;50.32
77281;BME280;66339;47.262;17.144;2023-11-19T09:06:45;100327.50;;;19.97;50.33
77281;BME280;66339;47.262;17.144;2023-11-19T09:09:12;100332.88;;;19.97;50.29
77281;BME280;66339;47.262;17.144;2023-11-19T09:11:39;100325.88;;;19.96;50.30
77281;BME280;66339;47.262;17.144;2023-11-19T09:14:06;100329.66;;;19.95;50.28
77281;BME280;66339;47.262;17.144;2023-11-19T09:16:33;100322.69;;;19.94;50.26
77281;BME280;66339;47.262;17.144;2023-11-19T09:19:00;100326.44;;;19.93;50.22
77281;BME280;66339;47.262;17.144;2023-11-19T09:21:31;100331.81;;;19.93;50.22
77281;BME280;66339;47.262;17.144;2023-11-19T09:23:58;100324.56;;;19.94;50.20
77281;BME280;66339;47.262;17.144;2023-11-19T09:26:28;100319.47;;;19.92;50.16
77281;BME280;66339;47.262;17.144;2023-11-19T09:28:55;100311.13;;;19.94;50.19
77281;BME280;66339;47.262;17.144;2023-11-19T09:31:22;100307.12;;;19.91;50.16
77281;BME280;66339;47.262;17.144;2023-11-19T09:33:48;100317.84;;;19.91;50.15
77281;BME280;66339;47.262;17.144;2023-11-19T09:36:16;100310.09;;;19.90;50.06
77281;BME280;66339;47.262;17.144;2023-11-19T09:38:45;100304.97;;;19.88;50.09
77281;BME280;66339;47.262;17.144;2023-11-19T09:41:15;100298.03;;;19.87;50.11
77281;BME280;66339;47.262;17.144;2023-11-19T09:43:43;100289.97;;;19.87;50.12
77281;BME280;66339;47.262;17.144;2023-11-19T09:46:14;100279.22;;;19.87;50.08
77281;BME280;66339;47.262;17.144;2023-11-19T09:48:42;100271.47;;;19.85;50.06
77281;BME280;66339;47.262;17.144;2023-11-19T09:51:12;100264.47;;;19.84;50.09
77281;BME280;66339;47.262;17.144;2023-11-19T09:53:39;100257.50;;;19.83;50.04
77281;BME280;66339;47.262;17.144;2023-11-19T09:56:07;100257.50;;;19.83;50.02
77281;BME280;66339;47.262;17.144;2023-11-19T09:58:41;100264.25;;;19.81;50.09
77281;BME280;66339;47.262;17.144;2023-11-19T10:01:08;100254.31;;;19.81;50.05
77281;BME280;66339;47.262;17.144;2023-11-19T10:03:39;100260.75;;;19.80;49.97
77281;BME280;66339;47.262;17.144;2023-11-19T10:06:11;100250.00;;;19.80;49.94
77281;BME280;66339;47.262;17.144;2023-11-19T10:08:41;100247.63;;;19.79;49.97
77281;BME280;66339;47.262;17.144;2023-11-19T10:11:11;100221.88;;;19.78;49.99
77281;BME280;66339;47.262;17.144;2023-11-19T10:13:38;100222.97;;;19.77;49.98
77281;BME280;66339;47.262;17.144;2023-11-19T10:16:11;100214.09;;;19.76;49.98
77281;BME280;66339;47.262;17.144;2023-11-19T10:18:49;100218.66;;;19.76;49.88
77281;BME280;66339;47.262;17.144;2023-11-19T10:21:19;100217.06;;;19.75;49.90
77281;BME280;66339;47.262;17.144;2023-11-19T10:23:49;100217.06;;;19.75;49.89
77281;BME280;66339;47.262;17.144;2023-11-19T10:26:16;100215.47;;;19.74;49.99
77281;BME280;66339;47.262;17.144;2023-11-19T10:28:43;100214.66;;;19.73;49.91
77281;BME280;66339;47.262;17.144;2023-11-19T10:31:17;100205.00;;;19.72;49.86
77281;BME280;66339;47.262;17.144;2023-11-19T10:33:44;100199.91;;;19.71;49.84
77281;BME280;66339;47.262;17.144;2023-11-19T10:36:15;100189.19;;;19.71;49.84
77281;BME280;66339;47.262;17.144;2023-11-19T10:38:52;100205.28;;;19.71;49.84
77281;BME280;66339;47.262;17.144;2023-11-19T10:41:29;100197.53;;;19.69;49.94
77281;BME280;66339;47.262;17.144;2023-11-19T10:43:57;100200.47;;;19.68;49.85
77281;BME280;66339;47.262;17.144;2023-11-19T10:46:36;100195.09;;;19.68;49.84
77281;BME280;66339;47.262;17.144;2023-11-19T10:49:04;100197.78;;;19.68;49.81
77281;BME280;66339;47.262;17.144;2023-11-19T10:51:34;100188.12;;;19.67;49.76
77281;BME280;66339;47.262;17.144;2023-11-19T10:54:05;100179.28;;;19.66;49.79
77281;BME280;66339;47.262;17.144;2023-11-19T10:56:33;100171.25;;;19.66;49.86
77281;BME280;66339;47.262;17.144;2023-11-19T10:59:01;100168.81;;;19.65;49.78
77281;BME280;66339;47.262;17.144;2023-11-19T11:02:07;100173.38;;;19.64;49.83
77281;BME280;66339;47.262;17.144;2023-11-19T11:04:30;100161.84;;;19.64;49.78
77281;BME280;66339;47.262;17.144;2023-11-19T11:06:59;100159.19;;;19.64;49.73
77281;BME280;66339;47.262;17.144;2023-11-19T11:09:30;100156.50;;;19.64;49.79
77281;BME280;66339;47.262;17.144;2023-11-19T11:11:59;100138.81;;;19.62;49.94
77281;BME280;66339;47.262;17.144;2023-11-19T11:14:30;100138.81;;;19.62;50.07
77281;BME280;66339;47.262;17.144;2023-11-19T11:17:01;100135.03;;;19.64;50.05
77281;BME280;66339;47.262;17.144;2023-11-19T11:19:32;100136.63;;;19.65;50.11
77281;BME280;66339;47.262;17.144;2023-11-19T11:22:00;100129.09;;;19.67;49.99
77281;BME280;66339;47.262;17.144;2023-11-19T11:36:01;100145.72;;;19.69;49.54
77281;BME280;66339;47.262;17.144;2023-11-19T11:38:38;100146.81;;;19.68;49.49
77281;BME280;66339;47.262;17.144;2023-11-19T11:41:23;100141.44;;;19.68;49.45
77281;BME280;66339;47.262;17.144;2023-11-19T11:43:55;100137.16;;;19.67;49.44
77281;BME280;66339;47.262;17.144;2023-11-19T11:49:06;100131.25;;;19.65;49.45
77281;BME280;66339;47.262;17.144;2023-11-19T11:57:08;100117.34;;;19.62;49.46
77281;BME280;66339;47.262;17.144;2023-11-19T11:59:49;100114.66;;;19.62;49.46
77281;BME280;66339;47.262;17.144;2023-11-19T12:02:21;100110.38;;;19.61;49.40
77281;BME280;66339;47.262;17.144;2023-11-19T12:04:50;100112.22;;;19.61;49.43
77281;BME280;66339;47.262;17.144;2023-11-19T12:07:22;100105.25;;;19.60;49.42
77281;BME280;66339;47.262;17.144;2023-11-19T12:10:06;100100.69;;;19.60;49.40
77281;BME280;66339;47.262;17.144;2023-11-19T12:12:38;100099.38;;;19.58;49.46
77281;BME280;66339;47.262;17.144;2023-11-19T12:15:07;100082.19;;;19.59;49.49
77281;BME280;66339;47.262;17.144;2023-11-19T12:20:04;100076.28;;;19.57;49.47
77281;BME280;66339;47.262;17.144;2023-11-19T12:22:32;100062.06;;;19.56;49.50
77281;BME280;66339;47.262;17.144;2023-11-19T12:24:59;100070.13;;;19.56;49.48
77281;BME280;66339;47.262;17.144;2023-11-19T12:27:28;100068.53;;;19.55;49.49
77281;BME280;66339;47.262;17.144;2023-11-19T12:29:55;100057.31;;;19.53;49.48
77281;BME280;66339;47.262;17.144;2023-11-19T12:32:21;100066.94;;;19.54;49.41
77281;BME280;66339;47.262;17.144;2023-11-19T12:34:49;100063.72;;;19.52;49.42
77281;BME280;66339;47.262;17.144;2023-11-19T12:37:15;100059.97;;;19.53;49.42
77281;BME280;66339;47.262;17.144;2023-11-19T12:39:42;100058.34;;;19.52;49.44
77281;BME280;66339;47.262;17.144;2023-11-19T12:42:14;100060.53;;;19.50;49.45
77281;BME280;66339;47.262;17.144;2023-11-19T12:44:56;100053.59;;;19.49;49.50
77281;BME280;66339;47.262;17.144;2023-11-19T12:47:23;100054.66;;;19.48;49.53
77281;BME280;66339;47.262;17.144;2023-11-19T12:49:59;100052.75;;;19.49;49.46
77281;BME280;66339;47.262;17.144;2023-11-19T12:52:26;100047.69;;;19.47;49.51
77281;BME280;66339;47.262;17.144;2023-11-19T12:54:53;100050.37;;;19.47;49.51
77281;BME280;66339;47.262;17.144;2023-11-19T12:57:20;100040.44;;;19.48;49.46
77281;BME280;66339;47.262;17.144;2023-11-19T12:59:56;100054.13;;;19.46;49.50
77281;BME280;66339;47.262;17.144;2023-11-19T13:02:22;100057.87;;;19.45;49.47
77281;BME280;66339;47.262;17.144;2023-11-19T13:04:53;100063.78;;;19.47;49.49
77281;BME280;66339;47.262;17.144;2023-11-19T13:07:22;100048.78;;;19.46;49.43
77281;BME280;66339;47.262;17.144;2023-11-19T13:09:49;100025.69;;;19.45;49.43
77281;BME280;66339;47.262;17.144;2023-11-19T13:12:16;100020.34;;;19.45;49.45
77281;BME280;66339;47.262;17.144;2023-11-19T13:14:46;100031.34;;;19.44;49.53
77281;BME280;66339;47.262;17.144;2023-11-19T13:17:14;100045.56;;;19.44;49.54
77281;BME280;66339;47.262;17.144;2023-11-19T13:19:41;100043.97;;;19.43;49.58
77281;BME280;66339;47.262;17.144;2023-11-19T13:22:08;100043.97;;;19.43;49.48
77281;BME280;66339;47.262;17.144;2023-11-19T13:24:38;100027.06;;;19.43;49.49
77281;BME280;66339;47.262;17.144;2023-11-19T13:27:08;100043.97;;;19.43;49.45
77281;BME280;66339;47.262;17.144;2023-11-19T13:29:34;100015.56;;;19.42;49.59
77281;BME280;66339;47.262;17.144;2023-11-19T13:32:02;100020.63;;;19.44;49.58
77281;BME280;66339;47.262;17.144;2023-11-19T13:34:31;100030.56;;;19.43;49.68
77281;BME280;66339;47.262;17.144;2023-11-19T13:37:02;100018.75;;;19.44;49.70
77281;BME280;66339;47.262;17.144;2023-11-19T13:39:31;100014.97;;;19.45;49.68
77281;BME280;66339;47.262;17.144;2023-11-19T13:41:58;99995.13;;;19.46;49.75
77281;BME280;66339;47.262;17.144;2023-11-19T13:44:28;100005.31;;;19.49;49.63
77281;BME280;66339;47.262;17.144;2023-11-19T13:46:55;100010.66;;;19.49;49.56
77281;BME280;66339;47.262;17.144;2023-11-19T13:49:25;100027.56;;;19.50;49.53
77281;BME280;66339;47.262;17.144;2023-11-19T13:51:52;100040.66;;;19.51;49.44
77281;BME280;66339;47.262;17.144;2023-11-19T13:54:22;100056.78;;;19.51;49.41
77281;BME280;66339;47.262;17.144;2023-11-19T13:56:49;100038.00;;;19.51;49.38
77281;BME280;66339;47.262;17.144;2023-11-19T13:59:16;100027.25;;;19.51;49.34
77281;BME280;66339;47.262;17.144;2023-11-19T14:01:42;100038.28;;;19.50;49.30
77281;BME280;66339;47.262;17.144;2023-11-19T14:04:09;100020.56;;;19.49;49.26
77281;BME280;66339;47.262;17.144;2023-11-19T14:06:37;100032.12;;;19.49;49.23
77281;BME280;66339;47.262;17.144;2023-11-19T14:09:06;100032.38;;;19.48;49.19
77281;BME280;66339;47.262;17.144;2023-11-19T14:11:34;100034.28;;;19.47;49.21
77281;BME280;66339;47.262;17.144;2023-11-19T14:14:00;100055.72;;;19.47;49.21
77281;BME280;66339;47.262;17.144;2023-11-19T14:16:27;100051.72;;;19.45;49.26
77281;BME280;66339;47.262;17.144;2023-11-19T14:18:54;100048.25;;;19.44;49.26
77281;BME280;66339;47.262;17.144;2023-11-19T14:21:21;100054.69;;;19.43;49.23
77281;BME280;66339;47.262;17.144;2023-11-19T14:23:48;100053.09;;;19.42;49.23
77281;BME280;66339;47.262;17.144;2023-11-19T14:26:15;100046.12;;;19.41;49.23
77281;BME280;66339;47.262;17.144;2023-11-19T14:28:42;100039.16;;;19.40;49.25
77281;BME280;66339;47.262;17.144;2023-11-19T14:31:12;100030.03;;;19.41;49.25
77281;BME280;66339;47.262;17.144;2023-11-19T14:33:39;100028.44;;;19.40;49.22
77281;BME280;66339;47.262;17.144;2023-11-19T14:36:06;100034.88;;;19.39;49.17
77281;BME280;66339;47.262;17.144;2023-11-19T14:38:34;100052.84;;;19.38;49.18
77281;BME280;66339;47.262;17.144;2023-11-19T14:41:01;100057.44;;;19.38;49.17
77281;BME280;66339;47.262;17.144;2023-11-19T14:43:27;100055.81;;;19.37;49.13
77281;BME280;66339;47.262;17.144;2023-11-19T14:45:54;100048.84;;;19.36;49.18